Time;durP1;ratioP1;P1;durP2;ratioP2;P2;SDS_P1;SDS_P2;PMS_P1;PMS_P2;Temp;Humidity;BMP_temperature;BMP_pressure;BME280_temperature;BME280_humidity;BME280_pressure;Samples;Min_cycle;Max_cycle;Signal;HPM_P1;HPM_P2
2023/03/30 00:00:32;;;;;;;;;;;11.00;99.90;;;;;;5156094;27;19907;-57
2023/03/30 00:03:01;;;;;;;;;;;11.00;99.90;;;;;;5156423;27;19908;-56
2023/03/30 00:05:29;;;;;;;;;;;11.00;99.90;;;;;;5155690;27;19915;-57
2023/03/30 00:07:55;;;;;;;;;;;11.10;99.90;;;;;;5156385;27;19989;-57
2023/03/30 00:10:21;;;;;;;;;;;11.10;99.90;;;;;;5156212;27;20409;-57
2023/03/30 00:12:49;;;;;;;;;;;11.10;99.90;;;;;;5155472;27;20308;-57
2023/03/30 00:15:16;;;;;;;;;;;11.10;99.90;;;;;;5156065;27;19907;-57
2023/03/30 00:17:42;;;;;;;;;;;11.10;99.90;;;;;;5156069;27;19907;-57
2023/03/30 00:20:10;;;;;;;;;;;11.10;99.90;;;;;;5155195;27;19907;-56
2023/03/30 00:22:45;;;;;;;;;;;11.20;99.90;;;;;;5155898;27;20315;-57
2023/03/30 00:25:13;;;;;;;;;;;11.20;99.90;;;;;;5155102;27;19915;-56
2023/03/30 00:27:39;;;;;;;;;;;11.20;99.90;;;;;;5155713;27;19997;-57
2023/03/30 00:30:05;;;;;;;;;;;11.20;99.90;;;;;;5155772;27;19907;-57
2023/03/30 00:32:33;;;;;;;;;;;11.20;99.90;;;;;;5155321;27;19914;-57
2023/03/30 00:34:58;;;;;;;;;;;11.20;99.90;;;;;;5155415;27;19907;-56
2023/03/30 00:37:24;;;;;;;;;;;11.10;99.90;;;;;;5155724;27;20285;-57
2023/03/30 00:39:52;;;;;;;;;;;11.10;99.90;;;;;;5154385;27;20262;-56
2023/03/30 00:42:18;;;;;;;;;;;11.20;99.90;;;;;;5155289;27;19911;-56
2023/03/30 00:45:02;;;;;;;;;;;11.10;99.90;;;;;;5155370;27;19919;-57
2023/03/30 00:47:28;;;;;;;;;;;11.10;99.90;;;;;;5155005;27;20311;-57
2023/03/30 00:49:54;;;;;;;;;;;11.10;99.90;;;;;;5155178;27;20381;-57
2023/03/30 00:52:23;;;;;;;;;;;11.00;99.90;;;;;;5155613;27;19915;-57
2023/03/30 00:54:54;;;;;;;;;;;11.00;99.90;;;;;;5154948;27;19957;-57
2023/03/30 00:57:21;;;;;;;;;;;11.00;99.90;;;;;;5155207;27;20318;-57
2023/03/30 00:59:46;;;;;;;;;;;10.90;99.90;;;;;;5155282;27;19907;-57
2023/03/30 01:02:12;;;;;;;;;;;10.90;99.90;;;;;;5154115;27;19930;-56
2023/03/30 01:04:37;;;;;;;;;;;10.90;99.90;;;;;;5155097;27;20019;-57
2023/03/30 01:07:04;;;;;;;;;;;10.90;99.90;;;;;;5155094;27;19911;-57
2023/03/30 01:09:29;;;;;;;;;;;10.90;99.90;;;;;;5154332;27;19911;-56
2023/03/30 01:11:55;;;;;;;;;;;10.90;99.90;;;;;;5154892;27;20322;-57
2023/03/30 01:14:21;;;;;;;;;;;11.00;99.90;;;;;;5154820;27;19911;-56
2023/03/30 01:16:46;;;;;;;;;;;11.10;99.90;;;;;;5154601;27;20269;-57
2023/03/30 01:19:15;;;;;;;;;;;11.10;99.90;;;;;;5154805;27;19911;-57
2023/03/30 01:21:40;;;;;;;;;;;11.20;99.90;;;;;;5154376;27;19910;-57
2023/03/30 01:24:26;;;;;;;;;;;11.20;99.90;;;;;;5154535;27;20314;-56
2023/03/30 01:27:22;;;;;;;;;;;11.30;99.90;;;;;;5154758;27;20433;-58
2023/03/30 01:30:20;;;;;;;;;;;11.40;99.90;;;;;;5132181;27;19907;-57
2023/03/30 01:32:55;;;;;;;;;;;11.50;99.90;;;;;;5097695;27;19959;-57
2023/03/30 01:35:44;;;;;;;;;;;11.60;99.90;;;;;;5154642;27;20445;-57
2023/03/30 01:38:24;;;;;;;;;;;11.60;99.90;;;;;;5154393;27;19914;-56
2023/03/30 01:41:06;;;;;;;;;;;11.70;99.90;;;;;;5154472;27;19911;-57
2023/03/30 01:43:35;;;;;;;;;;;11.80;99.90;;;;;;5154086;27;19908;-57
2023/03/30 01:46:03;;;;;;;;;;;11.80;99.90;;;;;;5154053;27;19919;-57
2023/03/30 01:48:28;;;;;;;;;;;11.90;99.90;;;;;;5154516;27;19914;-57
2023/03/30 01:50:56;;;;;;;;;;;11.90;99.90;;;;;;5153544;27;19911;-56
2023/03/30 01:53:30;;;;;;;;;;;12.00;99.90;;;;;;5154392;27;20064;-56
2023/03/30 01:56:01;;;;;;;;;;;12.00;99.90;;;;;;5154387;27;19967;-56
2023/03/30 01:58:27;;;;;;;;;;;12.00;99.90;;;;;;5153562;27;19911;-56
2023/03/30 02:00:53;;;;;;;;;;;12.00;99.90;;;;;;5154031;27;20019;-56
2023/03/30 02:03:26;;;;;;;;;;;11.90;99.90;;;;;;5154322;27;19908;-56
2023/03/30 02:05:55;;;;;;;;;;;11.90;99.90;;;;;;5153497;27;20014;-56
2023/03/30 02:08:22;;;;;;;;;;;11.90;99.90;;;;;;5154465;27;19907;-56
2023/03/30 02:10:49;;;;;;;;;;;12.00;99.90;;;;;;5153604;27;20187;-56
2023/03/30 02:13:16;;;;;;;;;;;11.90;99.90;;;;;;5153932;27;19907;-56
2023/03/30 02:15:43;;;;;;;;;;;11.90;99.90;;;;;;5154224;27;19914;-56
2023/03/30 02:18:08;;;;;;;;;;;11.90;99.90;;;;;;5153645;27;19942;-56
2023/03/30 02:20:34;;;;;;;;;;;11.90;99.90;;;;;;5153975;27;19982;-56
2023/03/30 02:23:00;;;;;;;;;;;11.90;99.90;;;;;;5154427;27;20057;-56
2023/03/30 02:25:26;;;;;;;;;;;11.80;99.90;;;;;;5153531;27;20025;-56
2023/03/30 02:27:52;;;;;;;;;;;11.80;99.90;;;;;;5153884;27;19907;-56
2023/03/30 02:30:18;;;;;;;;;;;11.80;99.90;;;;;;5154022;27;19907;-57
2023/03/30 02:32:48;;;;;;;;;;;11.70;99.90;;;;;;5153551;27;19914;-56
2023/03/30 02:35:17;;;;;;;;;;;11.70;99.90;;;;;;5153900;27;19957;-57
2023/03/30 02:37:52;;;;;;;;;;;11.60;99.90;;;;;;5154058;27;19914;-56
2023/03/30 02:40:24;;;;;;;;;;;11.60;99.90;;;;;;5153161;27;19957;-56
2023/03/30 02:43:04;;;;;;;;;;;11.70;99.90;;;;;;5154036;27;19907;-56
2023/03/30 02:45:32;;;;;;;;;;;11.70;99.90;;;;;;5153487;27;19919;-57
2023/03/30 02:48:33;;;;;;;;;;;11.80;99.90;;;;;;5153044;27;19907;-56
2023/03/30 02:51:17;;;;;;;;;;;11.80;99.90;;;;;;5049607;28;19952;-57
2023/03/30 02:53:50;;;;;;;;;;;11.80;99.90;;;;;;5143984;27;19907;-56
2023/03/30 02:56:18;;;;;;;;;;;11.90;99.90;;;;;;5153413;27;19950;-56
2023/03/30 02:58:49;;;;;;;;;;;11.90;99.90;;;;;;5153807;27;19907;-56
2023/03/30 03:01:18;;;;;;;;;;;11.90;99.90;;;;;;5152633;27;19925;-56
2023/03/30 03:03:45;;;;;;;;;;;11.80;99.90;;;;;;5156487;27;19936;-57
2023/03/30 03:06:13;;;;;;;;;;;11.80;99.90;;;;;;5157255;27;19926;-56
2023/03/30 03:08:40;;;;;;;;;;;11.80;99.90;;;;;;5156868;27;20012;-56
2023/03/30 03:11:06;;;;;;;;;;;11.90;99.90;;;;;;5157336;27;20353;-57
2023/03/30 03:13:35;;;;;;;;;;;11.90;99.90;;;;;;5157503;27;19940;-56
2023/03/30 03:16:02;;;;;;;;;;;11.90;99.90;;;;;;5156444;27;19907;-57
2023/03/30 03:18:27;;;;;;;;;;;11.90;99.90;;;;;;5157312;27;19907;-56
2023/03/30 03:20:53;;;;;;;;;;;12.00;99.90;;;;;;5157228;27;20002;-57
2023/03/30 03:23:18;;;;;;;;;;;12.00;99.90;;;;;;5156532;27;19911;-56
2023/03/30 03:25:44;;;;;;;;;;;12.00;99.90;;;;;;5157060;27;19915;-56
2023/03/30 03:28:09;;;;;;;;;;;12.00;99.90;;;;;;5156448;27;19918;-56
2023/03/30 03:30:35;;;;;;;;;;;11.90;99.90;;;;;;5156957;27;19908;-57
2023/03/30 03:33:00;;;;;;;;;;;11.90;99.90;;;;;;5156935;27;19907;-56
2023/03/30 03:35:28;;;;;;;;;;;11.90;99.90;;;;;;5156380;27;20315;-56
2023/03/30 03:37:54;;;;;;;;;;;11.80;99.90;;;;;;5156603;27;19917;-57
2023/03/30 03:40:19;;;;;;;;;;;11.90;99.90;;;;;;5156774;27;19911;-57
2023/03/30 03:42:45;;;;;;;;;;;11.90;99.90;;;;;;5156473;27;20409;-57
2023/03/30 03:45:11;;;;;;;;;;;12.00;99.90;;;;;;5156449;27;19911;-56
2023/03/30 03:47:36;;;;;;;;;;;12.00;99.90;;;;;;5156699;27;20021;-57
2023/03/30 03:50:05;;;;;;;;;;;12.00;99.90;;;;;;5156021;27;19955;-57
2023/03/30 03:52:31;;;;;;;;;;;12.10;99.90;;;;;;5156584;27;19907;-56
2023/03/30 03:54:56;;;;;;;;;;;12.20;99.90;;;;;;5156563;27;19993;-57
2023/03/30 03:57:25;;;;;;;;;;;12.20;99.90;;;;;;5155593;27;20006;-57
2023/03/30 03:59:51;;;;;;;;;;;12.20;99.90;;;;;;5156529;27;19915;-57
2023/03/30 04:02:17;;;;;;;;;;;12.30;99.90;;;;;;5156096;27;20378;-57
2023/03/30 04:04:43;;;;;;;;;;;12.30;99.90;;;;;;5155459;27;19918;-57
2023/03/30 04:07:08;;;;;;;;;;;12.30;99.90;;;;;;5156177;27;19914;-57
2023/03/30 04:09:34;;;;;;;;;;;12.40;99.90;;;;;;5156305;27;19907;-56
2023/03/30 04:11:59;;;;;;;;;;;12.40;99.90;;;;;;5155667;27;19952;-56
2023/03/30 04:14:25;;;;;;;;;;;12.60;99.90;;;;;;5155067;27;20281;-56
2023/03/30 04:16:50;;;;;;;;;;;12.70;99.90;;;;;;5156214;27;19913;-55
2023/03/30 04:19:16;;;;;;;;;;;12.80;99.90;;;;;;5155221;27;19907;-56
2023/03/30 04:21:45;;;;;;;;;;;12.90;99.90;;;;;;5156120;27;19950;-56
2023/03/30 04:24:12;;;;;;;;;;;13.00;99.90;;;;;;5155930;27;19908;-56
2023/03/30 04:26:37;;;;;;;;;;;13.00;99.90;;;;;;5155148;27;19954;-56
2023/03/30 04:29:05;;;;;;;;;;;13.10;99.90;;;;;;5155807;27;20381;-56
2023/03/30 04:31:33;;;;;;;;;;;13.10;99.90;;;;;;5155383;27;19942;-57
2023/03/30 04:34:01;;;;;;;;;;;13.10;99.90;;;;;;5155493;27;19907;-57
2023/03/30 04:36:30;;;;;;;;;;;13.00;99.90;;;;;;5155843;27;19959;-56
2023/03/30 04:38:59;;;;;;;;;;;13.00;99.90;;;;;;5155254;27;19907;-56
2023/03/30 04:41:28;;;;;;;;;;;13.00;99.90;;;;;;5155420;27;20375;-56
2023/03/30 04:43:54;;;;;;;;;;;13.00;99.90;;;;;;5155904;27;19907;-56
2023/03/30 04:46:20;;;;;;;;;;;12.90;99.90;;;;;;5154610;27;19915;-58
2023/03/30 04:48:45;;;;;;;;;;;12.80;99.90;;;;;;5155477;27;19937;-57
2023/03/30 04:51:10;;;;;;;;;;;12.80;99.90;;;;;;5155407;27;19908;-56
2023/03/30 04:53:36;;;;;;;;;;;12.70;99.90;;;;;;5154693;27;19930;-56
2023/03/30 04:56:01;;;;;;;;;;;12.50;99.90;;;;;;5155329;27;19907;-56
2023/03/30 04:58:27;;;;;;;;;;;12.50;99.90;;;;;;5155374;27;19914;-57
2023/03/30 05:00:54;;;;;;;;;;;12.40;99.90;;;;;;5154140;27;20034;-57
2023/03/30 05:03:19;;;;;;;;;;;12.30;99.90;;;;;;5155159;27;19958;-57
2023/03/30 05:05:45;;;;;;;;;;;12.30;99.90;;;;;;5155121;27;19965;-57
2023/03/30 05:08:10;;;;;;;;;;;12.20;99.90;;;;;;5154301;27;20006;-57
2023/03/30 05:10:36;;;;;;;;;;;12.20;99.90;;;;;;5155124;27;19907;-57
2023/03/30 05:13:01;;;;;;;;;;;12.10;99.90;;;;;;5155020;27;19907;-57
2023/03/30 05:15:27;;;;;;;;;;;12.10;99.90;;;;;;5154239;27;19907;-57
2023/03/30 05:17:52;;;;;;;;;;;12.00;99.90;;;;;;5154893;27;20534;-57
2023/03/30 05:20:18;;;;;;;;;;;12.00;99.90;;;;;;5154910;27;19946;-56
2023/03/30 05:22:45;;;;;;;;;;;12.00;99.90;;;;;;5154133;27;19954;-56
2023/03/30 05:25:11;;;;;;;;;;;12.00;99.90;;;;;;5154381;27;20369;-56
2023/03/30 05:27:37;;;;;;;;;;;12.00;99.90;;;;;;5154279;27;19914;-56
2023/03/30 05:30:03;;;;;;;;;;;12.00;99.90;;;;;;5154487;27;20424;-56
2023/03/30 05:32:28;;;;;;;;;;;12.00;99.90;;;;;;5154689;27;19956;-56
2023/03/30 05:34:54;;;;;;;;;;;12.00;99.90;;;;;;5154159;27;19922;-56
2023/03/30 05:37:20;;;;;;;;;;;12.00;99.90;;;;;;5154510;27;19998;-56
2023/03/30 05:39:46;;;;;;;;;;;12.00;99.90;;;;;;5154689;27;19907;-56
2023/03/30 05:42:12;;;;;;;;;;;12.00;99.90;;;;;;5153998;27;19911;-56
2023/03/30 05:44:37;;;;;;;;;;;12.00;99.90;;;;;;5154311;27;20025;-57
2023/03/30 05:47:03;;;;;;;;;;;12.00;99.90;;;;;;5154496;27;20270;-57
2023/03/30 05:49:28;;;;;;;;;;;12.00;99.90;;;;;;5153795;27;20001;-57
2023/03/30 05:51:54;;;;;;;;;;;12.00;99.90;;;;;;5154427;27;19911;-56
2023/03/30 05:54:20;;;;;;;;;;;12.00;99.90;;;;;;5154559;27;19999;-57
2023/03/30 05:56:46;;;;;;;;;;;12.10;99.90;;;;;;5153677;27;19908;-56
2023/03/30 05:59:11;;;;;;;;;;;12.20;99.90;;;;;;5154434;27;19964;-56
2023/03/30 06:01:37;;;;;;;;;;;12.20;99.90;;;;;;5153995;27;20385;-56
2023/03/30 06:04:03;;;;;;;;;;;12.30;99.90;;;;;;5153529;27;20356;-56
2023/03/30 06:06:28;;;;;;;;;;;12.30;99.90;;;;;;5154232;27;20380;-57
2023/03/30 06:08:54;;;;;;;;;;;12.30;99.90;;;;;;5154350;27;19954;-57
2023/03/30 06:11:19;;;;;;;;;;;12.30;99.90;;;;;;5153546;27;19914;-57
2023/03/30 06:13:45;;;;;;;;;;;12.30;99.90;;;;;;5154329;27;19907;-56
2023/03/30 06:16:10;;;;;;;;;;;12.40;99.90;;;;;;5154153;27;20447;-49
2023/03/30 06:18:36;;;;;;;;;;;12.30;99.90;;;;;;5153539;27;19907;-57
2023/03/30 06:21:05;;;;;;;;;;;12.30;99.90;;;;;;5154208;27;20254;-57
2023/03/30 06:23:31;;;;;;;;;;;12.30;99.90;;;;;;5154230;27;19934;-57
2023/03/30 06:25:58;;;;;;;;;;;12.20;99.90;;;;;;5153219;27;19922;-57
2023/03/30 06:28:24;;;;;;;;;;;12.20;99.90;;;;;;5154140;27;19914;-58
2023/03/30 06:30:49;;;;;;;;;;;12.20;99.90;;;;;;5154059;27;19915;-58
2023/03/30 06:33:15;;;;;;;;;;;12.20;99.90;;;;;;5153305;27;20357;-57
2023/03/30 06:35:48;;;;;;;;;;;12.20;99.90;;;;;;5154095;27;19955;-58
2023/03/30 06:38:13;;;;;;;;;;;12.10;99.90;;;;;;5155442;27;19911;-59
2023/03/30 06:40:39;;;;;;;;;;;12.10;99.90;;;;;;5157985;27;20430;-60
2023/03/30 06:43:05;;;;;;;;;;;12.20;99.90;;;;;;5157964;27;19931;-59
2023/03/30 06:45:31;;;;;;;;;;;12.10;99.90;;;;;;5157072;27;19968;-58
2023/03/30 06:47:57;;;;;;;;;;;12.10;99.90;;;;;;5157913;27;19907;-59
2023/03/30 06:50:22;;;;;;;;;;;12.20;99.90;;;;;;5157895;27;19907;-58
2023/03/30 06:52:48;;;;;;;;;;;12.20;99.90;;;;;;5157216;27;20290;-58
2023/03/30 06:55:13;;;;;;;;;;;12.20;99.90;;;;;;5157701;27;19998;-58
2023/03/30 06:57:39;;;;;;;;;;;12.20;99.90;;;;;;5157725;27;19951;-58
2023/03/30 07:00:12;;;;;;;;;;;12.20;99.90;;;;;;5157073;27;20353;-57
2023/03/30 07:02:38;;;;;;;;;;;12.40;99.90;;;;;;5157448;27;19951;-58
2023/03/30 07:05:05;;;;;;;;;;;12.50;99.90;;;;;;5157470;27;19918;-58
2023/03/30 07:07:30;;;;;;;;;;;12.60;99.90;;;;;;5157071;27;19911;-59
2023/03/30 07:09:56;;;;;;;;;;;12.80;99.90;;;;;;5157431;27;19907;-57
2023/03/30 07:12:22;;;;;;;;;;;12.90;99.90;;;;;;5157474;27;19911;-57
2023/03/30 07:14:47;;;;;;;;;;;13.00;99.90;;;;;;5156688;27;19930;-59
2023/03/30 07:17:12;;;;;;;;;;;13.00;99.90;;;;;;5157259;27;19907;-58
2023/03/30 07:19:38;;;;;;;;;;;13.00;99.90;;;;;;5157305;27;19954;-59
2023/03/30 07:22:03;;;;;;;;;;;13.10;99.90;;;;;;5156373;27;19907;-58
2023/03/30 07:24:30;;;;;;;;;;;13.10;99.90;;;;;;5157131;27;19907;-57
2023/03/30 07:26:56;;;;;;;;;;;13.10;99.90;;;;;;5156992;27;19911;-59
2023/03/30 07:29:21;;;;;;;;;;;13.10;99.90;;;;;;5156362;27;19933;-59
2023/03/30 07:31:47;;;;;;;;;;;13.00;99.90;;;;;;5157001;27;19952;-59
2023/03/30 07:34:12;;;;;;;;;;;13.00;99.90;;;;;;5156422;27;19911;-57
2023/03/30 07:36:38;;;;;;;;;;;13.00;99.90;;;;;;5157023;27;20457;-59
2023/03/30 07:39:03;;;;;;;;;;;13.00;99.90;;;;;;5156896;27;20398;-59
2023/03/30 07:41:29;;;;;;;;;;;13.00;99.90;;;;;;5156281;27;19907;-59
2023/03/30 07:43:54;;;;;;;;;;;13.10;99.90;;;;;;5156591;27;19960;-58
2023/03/30 07:46:20;;;;;;;;;;;13.10;99.90;;;;;;5156687;27;20006;-57
2023/03/30 07:48:45;;;;;;;;;;;13.10;99.90;;;;;;5155781;27;19907;-58
2023/03/30 07:51:12;;;;;;;;;;;13.10;99.90;;;;;;5156641;27;20266;-58
2023/03/30 07:53:38;;;;;;;;;;;13.10;99.90;;;;;;5156645;27;20405;-58
2023/03/30 07:56:04;;;;;;;;;;;13.10;99.90;;;;;;5155729;27;20020;-58
2023/03/30 07:58:30;;;;;;;;;;;13.10;99.90;;;;;;5156707;27;19907;-58
2023/03/30 08:00:55;;;;;;;;;;;13.10;99.90;;;;;;5156209;27;20030;-59
2023/03/30 08:03:21;;;;;;;;;;;13.10;99.90;;;;;;5155570;27;20380;-58
2023/03/30 08:05:53;;;;;;;;;;;13.10;99.90;;;;;;5156400;27;19915;-58
2023/03/30 08:08:19;;;;;;;;;;;13.00;99.90;;;;;;5156370;27;19907;-58
2023/03/30 08:10:45;;;;;;;;;;;13.00;99.90;;;;;;5155483;27;20021;-58
2023/03/30 08:13:11;;;;;;;;;;;13.00;99.90;;;;;;5156287;27;20337;-57
2023/03/30 08:15:37;;;;;;;;;;;12.90;99.90;;;;;;5156556;27;19914;-58
2023/03/30 08:18:03;;;;;;;;;;;12.90;99.90;;;;;;5155346;27;20277;-58
2023/03/30 08:20:28;;;;;;;;;;;13.00;99.90;;;;;;5156199;27;19914;-58
2023/03/30 08:22:54;;;;;;;;;;;12.90;99.90;;;;;;5156132;27;20317;-57
2023/03/30 08:25:19;;;;;;;;;;;13.00;99.90;;;;;;5155114;27;19955;-58
2023/03/30 08:27:45;;;;;;;;;;;13.00;99.90;;;;;;5156007;27;20348;-57
2023/03/30 08:30:12;;;;;;;;;;;13.00;99.90;;;;;;5155867;27;19915;-57
2023/03/30 08:32:37;;;;;;;;;;;13.00;99.90;;;;;;5155108;27;20015;-58
2023/03/30 08:35:04;;;;;;;;;;;13.00;99.90;;;;;;5155769;27;19950;-59
2023/03/30 08:37:30;;;;;;;;;;;13.00;99.90;;;;;;5155321;27;19934;-56
2023/03/30 08:39:56;;;;;;;;;;;12.90;99.90;;;;;;5155308;27;19908;-57
2023/03/30 08:42:33;;;;;;;;;;;12.80;99.90;;;;;;5155717;27;19965;-58
2023/03/30 08:45:04;;;;;;;;;;;12.80;99.90;;;;;;5154686;27;19911;-58
2023/03/30 08:47:35;;;;;;;;;;;12.70;99.90;;;;;;5155776;27;20006;-57
2023/03/30 08:50:03;;;;;;;;;;;12.70;99.90;;;;;;5155460;27;19914;-57
2023/03/30 08:52:29;;;;;;;;;;;12.70;99.90;;;;;;5154642;27;19918;-57
2023/03/30 08:54:56;;;;;;;;;;;12.70;99.90;;;;;;5155398;27;19908;-56
2023/03/30 08:57:28;;;;;;;;;;;12.60;99.90;;;;;;5155363;27;20288;-58
2023/03/30 09:00:05;;;;;;;;;;;12.60;99.90;;;;;;5154133;27;19911;-56
2023/03/30 09:02:32;;;;;;;;;;;12.50;99.90;;;;;;5155032;27;20002;-57
2023/03/30 09:05:00;;;;;;;;;;;12.50;99.90;;;;;;5155451;27;19968;-57
2023/03/30 09:07:27;;;;;;;;;;;12.50;99.90;;;;;;5154540;27;19914;-57
2023/03/30 09:09:54;;;;;;;;;;;12.60;99.90;;;;;;5155142;27;19997;-57
2023/03/30 09:12:27;;;;;;;;;;;12.60;99.90;;;;;;5155117;27;19907;-57
2023/03/30 09:14:57;;;;;;;;;;;12.50;99.90;;;;;;5154232;27;20023;-58
2023/03/30 09:17:25;;;;;;;;;;;12.50;99.90;;;;;;5154976;27;19911;-58
2023/03/30 09:19:56;;;;;;;;;;;12.40;99.90;;;;;;5154188;27;19911;-56
2023/03/30 09:22:26;;;;;;;;;;;12.40;99.90;;;;;;5154883;27;19944;-57
2023/03/30 09:24:52;;;;;;;;;;;12.50;99.90;;;;;;5154799;27;20288;-56
2023/03/30 09:27:24;;;;;;;;;;;12.70;99.90;;;;;;5154018;27;20315;-55
2023/03/30 09:29:51;;;;;;;;;;;12.80;99.90;;;;;;5154967;27;19907;-55
2023/03/30 09:32:27;;;;;;;;;;;13.00;99.90;;;;;;5154746;27;20358;-56
2023/03/30 09:35:06;;;;;;;;;;;13.20;99.90;;;;;;5153817;27;19980;-55
2023/03/30 09:37:33;;;;;;;;;;;13.50;99.90;;;;;;5154749;27;19956;-56
2023/03/30 09:40:01;;;;;;;;;;;13.60;99.90;;;;;;5154645;27;19914;-56
2023/03/30 09:42:36;;;;;;;;;;;13.60;99.90;;;;;;5153747;27;19915;-56
2023/03/30 09:45:21;;;;;;;;;;;13.50;99.90;;;;;;5154442;27;19911;-57
2023/03/30 09:47:46;;;;;;;;;;;13.50;99.90;;;;;;5154477;27;20045;-56
2023/03/30 09:50:21;;;;;;;;;;;13.50;99.90;;;;;;5153973;27;19999;-56
2023/03/30 09:53:00;;;;;;;;;;;13.40;99.90;;;;;;5154475;27;19907;-56
2023/03/30 09:55:27;;;;;;;;;;;13.40;99.90;;;;;;5153731;27;19907;-56
2023/03/30 09:57:54;;;;;;;;;;;13.50;99.90;;;;;;5154443;27;19997;-57
2023/03/30 10:00:26;;;;;;;;;;;13.50;99.90;;;;;;5154152;27;19907;-56
2023/03/30 10:03:03;;;;;;;;;;;13.60;99.90;;;;;;5153835;27;19957;-56
2023/03/30 10:05:30;;;;;;;;;;;13.50;99.90;;;;;;5154253;27;19980;-56
2023/03/30 10:08:04;;;;;;;;;;;13.50;99.90;;;;;;5154271;27;19907;-57
2023/03/30 10:10:36;;;;;;;;;;;13.60;99.90;;;;;;5153694;27;19943;-56
2023/03/30 10:13:06;;;;;;;;;;;13.60;99.90;;;;;;5155982;27;20391;-55
2023/03/30 10:15:35;;;;;;;;;;;13.60;99.90;;;;;;5158555;27;19907;-56
2023/03/30 10:18:22;;;;;;;;;;;13.60;99.90;;;;;;5157744;27;20365;-56
2023/03/30 10:20:52;;;;;;;;;;;13.50;99.90;;;;;;5158506;27;20281;-56
2023/03/30 10:23:20;;;;;;;;;;;13.50;99.90;;;;;;5157506;27;20395;-55
2023/03/30 10:25:49;;;;;;;;;;;13.50;99.90;;;;;;5158345;27;19919;-56
2023/03/30 10:28:20;;;;;;;;;;;13.50;99.90;;;;;;5158332;27;19908;-56
2023/03/30 10:31:02;;;;;;;;;;;13.60;99.90;;;;;;5157463;27;20285;-56
2023/03/30 10:33:29;;;;;;;;;;;13.60;99.90;;;;;;5158219;27;19911;-55
2023/03/30 10:35:59;;;;;;;;;;;13.60;99.90;;;;;;5157977;27;19907;-56
2023/03/30 10:38:29;;;;;;;;;;;13.60;99.90;;;;;;5157304;27;19908;-56
2023/03/30 10:41:01;;;;;;;;;;;13.70;99.90;;;;;;5158049;27;19907;-55
2023/03/30 10:43:29;;;;;;;;;;;13.70;99.90;;;;;;5158169;27;19914;-56
2023/03/30 10:45:56;;;;;;;;;;;13.70;99.90;;;;;;5157088;27;20388;-56
2023/03/30 10:48:36;;;;;;;;;;;13.70;99.90;;;;;;5157971;27;19915;-56
2023/03/30 10:51:05;;;;;;;;;;;13.70;99.90;;;;;;5157784;27;20026;-56
2023/03/30 10:53:30;;;;;;;;;;;13.70;99.90;;;;;;5157547;27;19907;-56
2023/03/30 10:56:02;;;;;;;;;;;13.70;99.90;;;;;;5157736;27;19914;-56
2023/03/30 10:58:27;;;;;;;;;;;13.80;99.90;;;;;;5157075;27;19911;-55
2023/03/30 11:01:05;;;;;;;;;;;13.90;99.90;;;;;;5157630;27;19919;-56
2023/03/30 11:03:31;;;;;;;;;;;14.10;99.90;;;;;;5157508;27;20316;-56
2023/03/30 11:06:02;;;;;;;;;;;14.20;99.90;;;;;;5156595;27;19950;-55
2023/03/30 11:08:28;;;;;;;;;;;14.20;99.90;;;;;;5157744;27;19914;-56
2023/03/30 11:10:56;;;;;;;;;;;14.20;99.90;;;;;;5157444;27;20018;-56
2023/03/30 11:13:29;;;;;;;;;;;14.10;99.90;;;;;;5156728;27;19925;-57
2023/03/30 11:16:04;;;;;;;;;;;14.10;99.90;;;;;;5157390;27;20346;-55
2023/03/30 11:18:36;;;;;;;;;;;14.10;99.90;;;;;;5157466;27;19907;-56
2023/03/30 11:21:08;;;;;;;;;;;14.10;99.90;;;;;;5156464;27;19911;-56
2023/03/30 11:23:52;;;;;;;;;;;14.00;99.90;;;;;;5156746;27;19911;-56
2023/03/30 11:26:29;;;;;;;;;;;14.10;99.90;;;;;;5156329;27;19919;-55
2023/03/30 11:28:58;;;;;;;;;;;14.10;99.90;;;;;;5157165;27;19907;-56
2023/03/30 11:31:42;;;;;;;;;;;14.20;99.90;;;;;;5157151;27;20369;-56
2023/03/30 11:34:13;;;;;;;;;;;14.20;99.90;;;;;;5156230;27;20210;-55
2023/03/30 11:36:44;;;;;;;;;;;14.40;99.90;;;;;;5157115;27;19982;-57
2023/03/30 11:39:13;;;;;;;;;;;14.50;99.90;;;;;;5157012;27;19918;-55
2023/03/30 11:41:46;;;;;;;;;;;14.50;99.90;;;;;;5156268;27;19907;-57
2023/03/30 11:44:12;;;;;;;;;;;14.80;99.90;;;;;;5156809;27;19911;-57
2023/03/30 11:46:44;;;;;;;;;;;15.00;99.90;;;;;;5156714;27;19915;-56
2023/03/30 11:49:36;;;;;;;;;;;14.80;99.10;;;;;;5156025;27;19941;-55
2023/03/30 11:52:03;;;;;;;;;;;14.80;99.90;;;;;;5116707;27;19911;-57
2023/03/30 11:54:28;;;;;;;;;;;14.80;99.90;;;;;;5155857;27;20396;-56
2023/03/30 11:56:59;;;;;;;;;;;15.00;99.90;;;;;;5156525;27;19951;-55
2023/03/30 11:59:25;;;;;;;;;;;15.20;99.90;;;;;;5156693;27;19950;-55
2023/03/30 12:01:53;;;;;;;;;;;15.10;99.50;;;;;;5155420;27;19965;-56
2023/03/30 12:04:25;;;;;;;;;;;15.00;99.90;;;;;;5156465;27;19907;-56
2023/03/30 12:06:59;;;;;;;;;;;15.10;99.90;;;;;;5156472;27;19915;-55
2023/03/30 12:09:24;;;;;;;;;;;15.20;96.80;;;;;;5155745;27;19907;-57
2023/03/30 12:11:50;;;;;;;;;;;15.20;99.90;;;;;;5156304;27;19907;-56
2023/03/30 12:14:43;;;;;;;;;;;15.30;99.90;;;;;;5156088;27;19907;-57
2023/03/30 12:17:24;;;;;;;;;;;15.30;98.90;;;;;;5155346;27;19969;-56
2023/03/30 12:19:53;;;;;;;;;;;15.40;99.90;;;;;;5156243;27;19914;-56
2023/03/30 12:22:36;;;;;;;;;;;15.60;98.80;;;;;;5156193;27;20010;-56
2023/03/30 12:25:23;;;;;;;;;;;15.70;99.90;;;;;;5155844;27;19926;-56
2023/03/30 12:27:57;;;;;;;;;;;15.70;99.90;;;;;;5156109;27;19931;-55
2023/03/30 12:30:30;;;;;;;;;;;15.70;97.40;;;;;;5155173;27;19911;-56
2023/03/30 12:32:58;;;;;;;;;;;15.40;95.60;;;;;;5155926;27;19952;-56
2023/03/30 12:35:42;;;;;;;;;;;15.30;96.50;;;;;;5154928;27;19919;-56
2023/03/30 12:38:07;;;;;;;;;;;15.20;98.40;;;;;;5154958;27;19959;-55
2023/03/30 12:40:36;;;;;;;;;;;15.30;97.90;;;;;;5155720;27;19954;-55
2023/03/30 12:43:21;;;;;;;;;;;15.20;99.10;;;;;;5155650;27;19911;-57
2023/03/30 12:46:01;;;;;;;;;;;15.10;99.90;;;;;;5154767;27;19915;-57
2023/03/30 12:48:33;;;;;;;;;;;14.90;99.90;;;;;;5155701;27;19913;-56
2023/03/30 12:51:12;;;;;;;;;;;14.90;99.50;;;;;;5154834;27;19911;-57
2023/03/30 12:53:46;;;;;;;;;;;14.90;98.20;;;;;;5155697;27;19907;-56
2023/03/30 12:56:20;;;;;;;;;;;14.80;99.90;;;;;;5155331;27;19915;-57
2023/03/30 12:59:05;;;;;;;;;;;14.70;96.10;;;;;;5154708;27;19911;-57
2023/03/30 13:01:44;;;;;;;;;;;14.60;97.50;;;;;;5155025;27;20381;-56
2023/03/30 13:04:15;;;;;;;;;;;14.80;99.90;;;;;;5155245;27;19907;-56
2023/03/30 13:06:49;;;;;;;;;;;14.90;99.20;;;;;;5154517;27;20391;-56
2023/03/30 13:09:14;;;;;;;;;;;15.10;96.30;;;;;;5155067;27;19938;-56
2023/03/30 13:11:52;;;;;;;;;;;15.40;99.90;;;;;;5155096;27;19914;-56
2023/03/30 13:14:25;;;;;;;;;;;15.30;96.30;;;;;;5155052;27;19907;-56
2023/03/30 13:16:51;;;;;;;;;;;15.10;96.70;;;;;;5154966;27;19907;-55
2023/03/30 13:19:27;;;;;;;;;;;15.10;99.90;;;;;;5154242;27;20034;-56
2023/03/30 13:22:11;;;;;;;;;;;15.00;98.00;;;;;;5154911;27;19907;-56
2023/03/30 13:24:51;;;;;;;;;;;14.90;99.90;;;;;;5154939;27;19911;-56
2023/03/30 13:27:17;;;;;;;;;;;14.80;99.90;;;;;;5154031;27;19911;-57
2023/03/30 13:29:57;;;;;;;;;;;14.80;99.90;;;;;;5154809;27;19950;-57
2023/03/30 13:32:28;;;;;;;;;;;14.70;99.90;;;;;;5154769;27;20074;-56
2023/03/30 13:35:00;;;;;;;;;;;14.80;99.90;;;;;;5153994;27;19907;-55
2023/03/30 13:37:31;;;;;;;;;;;14.70;99.90;;;;;;5154735;27;20365;-55
2023/03/30 13:39:56;;;;;;;;;;;14.80;99.90;;;;;;5153879;27;19907;-56
2023/03/30 13:42:21;;;;;;;;;;;14.90;99.90;;;;;;5154737;27;19913;-56
2023/03/30 13:45:13;;;;;;;;;;;14.90;99.90;;;;;;5154806;27;19999;-56
2023/03/30 13:47:42;;;;;;;;;;;14.80;99.90;;;;;;5128944;27;19960;-56
2023/03/30 13:50:26;;;;;;;;;;;14.70;99.90;;;;;;5154405;27;19908;-56
2023/03/30 13:52:52;;;;;;;;;;;14.80;99.90;;;;;;5154565;27;19986;-56
2023/03/30 13:55:22;;;;;;;;;;;14.80;99.90;;;;;;5153658;27;19907;-56
2023/03/30 13:57:52;;;;;;;;;;;14.70;99.90;;;;;;5154474;27;20377;-56
2023/03/30 14:00:21;;;;;;;;;;;14.70;99.90;;;;;;5154205;27;20315;-55
2023/03/30 14:02:48;;;;;;;;;;;14.70;99.90;;;;;;5153393;27;19918;-56
2023/03/30 14:05:19;;;;;;;;;;;14.50;99.90;;;;;;5154508;27;19916;-56
2023/03/30 14:07:46;;;;;;;;;;;14.50;99.90;;;;;;5154309;27;20345;-56
2023/03/30 14:10:16;;;;;;;;;;;14.50;99.90;;;;;;5153243;27;19907;-56
2023/03/30 14:12:42;;;;;;;;;;;14.40;99.90;;;;;;5154073;27;19915;-55
2023/03/30 14:15:19;;;;;;;;;;;14.30;99.90;;;;;;5153402;27;20354;-57
2023/03/30 14:17:49;;;;;;;;;;;14.20;99.90;;;;;;5154340;27;19946;-56
2023/03/30 14:20:15;;;;;;;;;;;14.10;99.90;;;;;;5154116;27;20374;-57
2023/03/30 14:22:42;;;;;;;;;;;14.10;99.90;;;;;;5153498;27;19907;-56
2023/03/30 14:25:40;;;;;;;;;;;14.00;99.90;;;;;;5154091;27;20322;-55
2023/03/30 14:28:12;;;;;;;;;;;14.00;99.90;;;;;;5097030;27;20388;-57